createdAt,value
2023-02-24T00:01:09.178Z,84.96
2023-02-24T00:06:16.825Z,85.13
2023-02-24T00:11:24.713Z,84.85
2023-02-24T00:16:32.735Z,84.62
2023-02-24T00:21:40.956Z,84.93
2023-02-24T00:26:54.572Z,84.79
2023-02-24T00:32:07.351Z,84.95
2023-02-24T00:37:16.641Z,85.23
2023-02-24T00:42:24.519Z,85.09
2023-02-24T00:47:34.047Z,85.19
2023-02-24T00:52:41.931Z,85.20
2023-02-24T00:57:51.082Z,85.15
2023-02-24T01:02:59.775Z,85.53
2023-02-24T01:08:08.529Z,85.85
2023-02-24T01:13:16.518Z,86.03
2023-02-24T01:18:25.577Z,86.16
2023-02-24T01:23:33.939Z,85.90
2023-02-24T01:28:42.173Z,86.00
2023-02-24T01:33:50.450Z,86.25
2023-02-24T01:38:58.516Z,86.46
2023-02-24T01:44:10.729Z,86.90
2023-02-24T01:49:22.476Z,86.89
2023-02-24T01:54:34.575Z,86.46
2023-02-24T01:59:42.295Z,86.46
2023-02-24T02:04:55.129Z,86.30
2023-02-24T02:10:04.725Z,86.23
2023-02-24T02:15:14.982Z,86.19
2023-02-24T02:20:49.346Z,86.03
2023-02-24T02:26:14.255Z,86.28
2023-02-24T02:31:57.663Z,86.53
2023-02-24T02:37:12.374Z,86.60
2023-02-24T02:42:30.354Z,86.54
2023-02-24T02:47:43.600Z,86.63
2023-02-24T02:52:57.664Z,86.63
2023-02-24T02:58:09.432Z,86.43
2023-02-24T03:03:20.128Z,86.38
2023-02-24T03:08:31.348Z,86.61
2023-02-24T03:13:46.752Z,86.70
2023-02-24T03:19:01.671Z,86.57
2023-02-24T03:24:11.018Z,86.67
2023-02-24T03:29:24.315Z,86.42
2023-02-24T03:34:45.035Z,86.32
2023-02-24T03:39:54.109Z,86.26
2023-02-24T03:45:02.030Z,86.01
2023-02-24T03:50:17.777Z,86.03
2023-02-24T03:55:38.157Z,86.23
2023-02-24T04:00:52.816Z,86.33
2023-02-24T04:06:11.222Z,86.58
2023-02-24T04:11:27.687Z,87.66
2023-02-24T04:16:44.914Z,88.54
2023-02-24T04:21:53.203Z,89.72
2023-02-24T04:27:03.995Z,90.38
2023-02-24T04:32:15.185Z,91.45
2023-02-24T04:37:23.418Z,92.56
2023-02-24T04:42:31.146Z,93.02
2023-02-24T04:47:38.765Z,93.03
2023-02-24T04:52:46.596Z,93.56
2023-02-24T04:57:55.765Z,94.08
2023-02-24T05:03:05.706Z,94.53
2023-02-24T05:08:16.357Z,94.36
2023-02-24T05:13:28.208Z,94.63
2023-02-24T05:18:38.314Z,94.76
2023-02-24T05:23:48.243Z,95.38
2023-02-24T05:28:59.993Z,95.52
2023-02-24T05:34:09.767Z,95.29
2023-02-24T05:39:20.155Z,95.77
2023-02-24T05:44:32.115Z,95.24
2023-02-24T05:49:40.147Z,95.52
2023-02-24T05:54:49.884Z,95.54
2023-02-24T05:59:57.791Z,95.41
2023-02-24T06:05:09.171Z,95.20
2023-02-24T06:10:17.395Z,95.36
2023-02-24T06:15:25.589Z,95.61
2023-02-24T06:20:34.813Z,95.37
2023-02-24T06:25:42.485Z,95.44
2023-02-24T06:30:50.890Z,95.54
2023-02-24T06:36:00.822Z,95.58
2023-02-24T06:41:11.326Z,95.43
2023-02-24T06:46:19.779Z,95.57
2023-02-24T06:51:30.829Z,95.49
2023-02-24T06:56:38.844Z,94.92
2023-02-24T07:01:47.532Z,95.50
2023-02-24T07:06:57.108Z,95.42
2023-02-24T07:12:07.133Z,95.42
2023-02-24T07:17:19.663Z,95.74
2023-02-24T07:22:27.067Z,95.41
2023-02-24T07:27:34.820Z,95.43
2023-02-24T07:32:43.144Z,94.89
2023-02-24T07:37:51.129Z,94.82
2023-02-24T07:42:59.162Z,94.42
2023-02-24T07:48:07.004Z,94.24
2023-02-24T07:53:16.835Z,94.36
2023-02-24T07:58:24.675Z,93.71
2023-02-24T08:03:33.551Z,93.64
2023-02-24T08:08:58.047Z,93.38
2023-02-24T08:14:11.102Z,92.84
2023-02-24T08:19:24.123Z,92.52
2023-02-24T08:24:35.870Z,92.68
2023-02-24T08:29:58.899Z,92.19
2023-02-24T08:35:15.142Z,91.78
2023-02-24T08:40:40.046Z,91.19
2023-02-24T08:45:51.755Z,90.40
2023-02-24T08:51:00.876Z,89.52
2023-02-24T08:56:12.980Z,88.43
2023-02-24T09:01:24.825Z,87.83
2023-02-24T09:06:44.490Z,86.06
2023-02-24T09:11:56.711Z,85.21
2023-02-24T09:17:11.782Z,84.49
2023-02-24T09:22:31.796Z,84.56
2023-02-24T09:27:42.609Z,83.91
2023-02-24T09:32:50.321Z,83.87
2023-02-24T09:37:58.731Z,83.46
2023-02-24T09:43:11.360Z,83.55
2023-02-24T09:48:24.812Z,83.15
2023-02-24T09:53:49.697Z,82.30
2023-02-24T09:59:10.568Z,81.13
2023-02-24T10:04:37.269Z,80.08
2023-02-24T10:09:51.276Z,79.81
2023-02-24T10:15:18.669Z,80.29
2023-02-24T10:20:40.215Z,79.88
2023-02-24T10:25:55.284Z,80.53
2023-02-24T10:31:15.212Z,80.62
2023-02-24T10:36:35.789Z,80.96
2023-02-24T10:41:49.704Z,81.08
2023-02-24T10:47:13.112Z,80.89
2023-02-24T10:52:37.283Z,80.33
2023-02-24T10:57:58.981Z,80.71
2023-02-24T11:03:22.129Z,80.92
2023-02-24T11:08:40.246Z,81.18
2023-02-24T11:14:09.853Z,80.44
2023-02-24T11:19:18.484Z,80.67
2023-02-24T11:24:26.774Z,81.04
2023-02-24T11:29:47.527Z,80.49
2023-02-24T11:35:00.282Z,80.72
2023-02-24T11:40:15.690Z,80.73
2023-02-24T11:45:35.963Z,80.24
2023-02-24T11:50:47.160Z,80.39
2023-02-24T11:56:00.145Z,79.98
2023-02-24T12:01:16.464Z,79.11
2023-02-24T12:06:31.350Z,76.80
2023-02-24T12:11:44.852Z,76.50
2023-02-24T12:16:59.631Z,75.69
2023-02-24T12:22:16.442Z,75.52
2023-02-24T12:27:39.709Z,75.19
2023-02-24T12:33:01.945Z,75.54
2023-02-24T12:38:20.270Z,75.75
2023-02-24T12:43:36.779Z,75.20
2023-02-24T12:49:10.767Z,75.43
2023-02-24T12:54:24.917Z,75.08
2023-02-24T12:59:39.891Z,74.49
2023-02-24T13:04:57.400Z,74.91
2023-02-24T13:10:18.419Z,75.17
2023-02-24T13:15:28.647Z,76.66
2023-02-24T13:20:38.668Z,79.49
2023-02-24T13:25:54.113Z,81.51
2023-02-24T13:31:03.705Z,82.77
2023-02-24T13:36:15.383Z,83.40
2023-02-24T13:41:38.192Z,84.50
2023-02-24T13:46:59.309Z,83.52
2023-02-24T13:52:16.116Z,82.94
2023-02-24T13:57:50.135Z,81.29
2023-02-24T14:02:59.265Z,81.95
2023-02-24T14:08:08.161Z,82.25
2023-02-24T14:13:21.608Z,82.40
2023-02-24T14:18:31.118Z,81.18
2023-02-24T14:28:33.741Z,80.64
2023-02-24T14:33:44.045Z,79.36
2023-02-24T14:39:04.839Z,77.91
2023-02-24T14:44:22.460Z,77.29
2023-02-24T14:49:32.759Z,77.59
2023-02-24T14:54:47.452Z,76.69
2023-02-24T14:59:57.860Z,76.37
2023-02-24T15:05:06.113Z,76.94
2023-02-24T15:10:24.822Z,76.20
2023-02-24T15:15:38.972Z,75.77
2023-02-24T15:20:46.567Z,75.58
2023-02-24T15:25:54.470Z,76.17
2023-02-24T15:31:11.147Z,77.44
2023-02-24T15:36:23.735Z,78.46
2023-02-24T15:41:41.730Z,81.17
2023-02-24T15:46:49.919Z,84.01
2023-02-24T15:52:01.733Z,86.38
2023-02-24T15:57:12.487Z,87.84
2023-02-24T16:02:21.728Z,89.02
2023-02-24T16:07:33.766Z,88.69
2023-02-24T16:12:50.117Z,88.13
2023-02-24T16:17:59.413Z,87.98
2023-02-24T16:23:07.759Z,88.01
2023-02-24T16:28:17.627Z,88.30
2023-02-24T16:33:25.951Z,88.57
2023-02-24T16:38:34.092Z,89.21
2023-02-24T16:43:41.859Z,89.42
2023-02-24T16:48:53.434Z,89.93
2023-02-24T17:05:44.360Z,89.66
2023-02-24T17:10:50.589Z,89.45
2023-02-24T17:15:56.807Z,89.72
2023-02-24T17:21:02.169Z,89.93
2023-02-24T17:26:06.848Z,90.33
2023-02-24T17:31:12.495Z,91.09
2023-02-24T17:36:17.278Z,91.25
2023-02-24T17:41:21.511Z,91.09
2023-02-24T17:46:26.306Z,90.86
2023-02-24T17:51:31.450Z,91.11
2023-02-24T17:56:36.062Z,90.64
2023-02-24T18:01:40.485Z,90.50
2023-02-24T18:06:45.628Z,90.86
2023-02-24T18:11:50.199Z,90.70
2023-02-24T18:16:54.584Z,90.31
2023-02-24T18:21:59.288Z,90.47
2023-02-24T18:30:36.543Z,90.83
2023-02-24T18:35:44.247Z,90.68
2023-02-24T18:41:00.459Z,90.52
2023-02-24T18:46:12.199Z,90.45
2023-02-24T18:51:23.136Z,90.11
2023-02-24T18:56:32.649Z,89.76
2023-02-24T19:01:41.487Z,89.91
2023-02-24T19:06:49.287Z,89.99
2023-02-24T19:11:56.781Z,90.13
2023-02-24T19:17:04.978Z,89.96
2023-02-24T19:28:04.504Z,90.67
2023-02-24T19:33:12.209Z,90.79
2023-02-24T19:38:21.649Z,90.64
2023-02-24T19:43:29.254Z,90.40
2023-02-24T19:48:36.997Z,90.49
2023-02-24T19:53:44.799Z,90.56
2023-02-24T19:58:55.775Z,90.91
2023-02-24T20:04:05.539Z,90.97
2023-02-24T20:09:16.017Z,91.49
2023-02-24T20:14:23.655Z,91.62
2023-02-24T20:19:33.533Z,91.72
2023-02-24T20:24:41.221Z,91.45
2023-02-24T20:29:50.732Z,91.87
2023-02-24T20:35:00.743Z,92.37
2023-02-24T20:40:12.692Z,92.55
2023-02-24T20:45:21.082Z,92.32
2023-02-24T20:50:29.931Z,91.87
2023-02-24T20:55:38.978Z,91.78
2023-02-24T21:00:47.080Z,92.02
2023-02-24T21:06:08.825Z,91.55
2023-02-24T21:11:18.177Z,90.76
2023-02-24T21:16:27.231Z,90.69
2023-02-24T21:21:34.937Z,91.26
2023-02-24T21:26:42.706Z,91.52
2023-02-24T21:31:50.731Z,91.58
2023-02-24T21:36:59.532Z,91.95
2023-02-24T21:42:08.125Z,92.15
2023-02-24T21:47:16.447Z,92.30
2023-02-24T21:52:24.106Z,91.99
2023-02-24T21:57:31.895Z,91.79
2023-02-24T22:02:39.689Z,91.67
2023-02-24T22:07:48.084Z,91.42
2023-02-24T22:12:59.246Z,91.00
2023-02-24T22:18:07.653Z,90.96
2023-02-24T22:23:15.921Z,90.65
2023-02-24T22:28:23.717Z,89.98
2023-02-24T22:33:31.831Z,89.16
2023-02-24T22:38:40.676Z,89.01
2023-02-24T22:43:49.479Z,89.05
2023-02-24T22:48:59.085Z,88.55
2023-02-24T22:54:07.467Z,86.88
2023-02-24T22:59:16.183Z,86.03
2023-02-24T23:04:24.685Z,86.11
2023-02-24T23:09:32.908Z,85.51
2023-02-24T23:14:40.757Z,85.07
2023-02-24T23:19:48.351Z,85.50
2023-02-24T23:24:57.047Z,85.64
2023-02-24T23:30:06.792Z,85.80
2023-02-24T23:35:16.098Z,86.08
2023-02-24T23:40:26.457Z,86.54
2023-02-24T23:45:37.594Z,86.37
2023-02-24T23:50:46.315Z,85.40
2023-02-24T23:55:54.921Z,84.77
